sensor_id;sensor_type;location;lat;lon;timestamp;temperature;humidity
9193;DHT22;4631;49.296;10.560;2023-05-17T00:02:24;8.20;99.90
9193;DHT22;4631;49.296;10.560;2023-05-17T00:04:51;8.10;99.90
9193;DHT22;4631;49.296;10.560;2023-05-17T00:07:18;8.10;99.90
9193;DHT22;4631;49.296;10.560;2023-05-17T00:09:44;8.00;99.90
9193;DHT22;4631;49.296;10.560;2023-05-17T00:12:11;8.00;99.90
9193;DHT22;4631;49.296;10.560;2023-05-17T00:14:38;8.00;99.90
9193;DHT22;4631;49.296;10.560;2023-05-17T00:17:04;8.00;99.90
9193;DHT22;4631;49.296;10.560;2023-05-17T00:19:32;8.00;99.90
9193;DHT22;4631;49.296;10.560;2023-05-17T00:21:59;8.00;99.90
9193;DHT22;4631;49.296;10.560;2023-05-17T00:24:26;7.90;99.90
9193;DHT22;4631;49.296;10.560;2023-05-17T00:26:52;7.90;99.90
9193;DHT22;4631;49.296;10.560;2023-05-17T00:29:19;7.90;99.90
9193;DHT22;4631;49.296;10.560;2023-05-17T00:31:45;7.90;99.90
9193;DHT22;4631;49.296;10.560;2023-05-17T00:34:12;7.90;99.90
9193;DHT22;4631;49.296;10.560;2023-05-17T00:36:40;7.80;99.90
9193;DHT22;4631;49.296;10.560;2023-05-17T00:39:07;7.80;99.90
9193;DHT22;4631;49.296;10.560;2023-05-17T00:41:33;7.80;99.90
9193;DHT22;4631;49.296;10.560;2023-05-17T00:44:00;7.80;99.90
9193;DHT22;4631;49.296;10.560;2023-05-17T00:46:26;7.70;99.90
9193;DHT22;4631;49.296;10.560;2023-05-17T00:48:53;7.70;99.90
9193;DHT22;4631;49.296;10.560;2023-05-17T00:51:20;7.60;99.90
9193;DHT22;4631;49.296;10.560;2023-05-17T00:53:48;7.60;99.90
9193;DHT22;4631;49.296;10.560;2023-05-17T00:56:15;7.60;99.90
9193;DHT22;4631;49.296;10.560;2023-05-17T00:58:41;7.60;99.90
9193;DHT22;4631;49.296;10.560;2023-05-17T01:01:08;7.60;99.90
9193;DHT22;4631;49.296;10.560;2023-05-17T01:03:35;7.50;99.90
9193;DHT22;4631;49.296;10.560;2023-05-17T01:06:02;7.50;99.90
9193;DHT22;4631;49.296;10.560;2023-05-17T01:08:29;7.40;99.90
9193;DHT22;4631;49.296;10.560;2023-05-17T01:10:59;7.40;99.90
9193;DHT22;4631;49.296;10.560;2023-05-17T01:13:30;7.30;99.90
9193;DHT22;4631;49.296;10.560;2023-05-17T01:16:01;7.30;99.90
9193;DHT22;4631;49.296;10.560;2023-05-17T01:18:31;7.30;99.90
9193;DHT22;4631;49.296;10.560;2023-05-17T01:20:59;7.20;99.90
9193;DHT22;4631;49.296;10.560;2023-05-17T01:23:30;7.20;99.90
9193;DHT22;4631;49.296;10.560;2023-05-17T01:26:05;7.10;99.90
9193;DHT22;4631;49.296;10.560;2023-05-17T01:28:34;7.10;99.90
9193;DHT22;4631;49.296;10.560;2023-05-17T01:31:02;7.10;99.90
9193;DHT22;4631;49.296;10.560;2023-05-17T01:33:29;7.00;99.90
9193;DHT22;4631;49.296;10.560;2023-05-17T01:35:56;7.00;99.90
9193;DHT22;4631;49.296;10.560;2023-05-17T01:38:22;7.00;99.90
9193;DHT22;4631;49.296;10.560;2023-05-17T01:40:51;7.00;99.90
9193;DHT22;4631;49.296;10.560;2023-05-17T01:43:20;6.90;99.90
9193;DHT22;4631;49.296;10.560;2023-05-17T01:45:52;6.90;99.90
9193;DHT22;4631;49.296;10.560;2023-05-17T01:48:22;6.80;99.90
9193;DHT22;4631;49.296;10.560;2023-05-17T01:50:51;6.80;99.90
9193;DHT22;4631;49.296;10.560;2023-05-17T01:53:21;6.80;99.90
9193;DHT22;4631;49.296;10.560;2023-05-17T01:55:49;6.80;99.90
9193;DHT22;4631;49.296;10.560;2023-05-17T01:58:17;6.70;99.90
9193;DHT22;4631;49.296;10.560;2023-05-17T02:00:46;6.70;99.90
9193;DHT22;4631;49.296;10.560;2023-05-17T02:03:17;6.70;99.90
9193;DHT22;4631;49.296;10.560;2023-05-17T02:05:44;6.70;99.90
9193;DHT22;4631;49.296;10.560;2023-05-17T02:08:10;6.70;99.90
9193;DHT22;4631;49.296;10.560;2023-05-17T02:10:37;6.60;99.90
9193;DHT22;4631;49.296;10.560;2023-05-17T02:13:03;6.60;99.90
9193;DHT22;4631;49.296;10.560;2023-05-17T02:15:30;6.60;99.90
9193;DHT22;4631;49.296;10.560;2023-05-17T02:17:57;6.60;99.90
9193;DHT22;4631;49.296;10.560;2023-05-17T02:20:25;6.60;99.90
9193;DHT22;4631;49.296;10.560;2023-05-17T02:22:51;6.60;99.90
9193;DHT22;4631;49.296;10.560;2023-05-17T02:25:18;6.50;99.90
9193;DHT22;4631;49.296;10.560;2023-05-17T02:27:44;6.50;99.90
9193;DHT22;4631;49.296;10.560;2023-05-17T02:30:11;6.50;99.90
9193;DHT22;4631;49.296;10.560;2023-05-17T02:32:41;6.50;99.90
9193;DHT22;4631;49.296;10.560;2023-05-17T02:35:08;6.50;99.90
9193;DHT22;4631;49.296;10.560;2023-05-17T02:37:36;6.50;99.90
9193;DHT22;4631;49.296;10.560;2023-05-17T02:40:03;6.50;99.90
9193;DHT22;4631;49.296;10.560;2023-05-17T02:42:33;6.40;99.90
9193;DHT22;4631;49.296;10.560;2023-05-17T02:44:59;6.40;99.90
9193;DHT22;4631;49.296;10.560;2023-05-17T02:47:26;6.40;99.90
9193;DHT22;4631;49.296;10.560;2023-05-17T02:49:52;6.40;99.90
9193;DHT22;4631;49.296;10.560;2023-05-17T02:52:19;6.40;99.90
9193;DHT22;4631;49.296;10.560;2023-05-17T02:54:47;6.40;99.90
9193;DHT22;4631;49.296;10.560;2023-05-17T02:57:14;6.40;99.90
9193;DHT22;4631;49.296;10.560;2023-05-17T02:59:40;6.30;99.90
9193;DHT22;4631;49.296;10.560;2023-05-17T03:02:07;6.30;99.90
9193;DHT22;4631;49.296;10.560;2023-05-17T03:04:34;6.30;99.90
9193;DHT22;4631;49.296;10.560;2023-05-17T03:07:01;6.30;99.90
9193;DHT22;4631;49.296;10.560;2023-05-17T03:09:27;6.20;99.90
9193;DHT22;4631;49.296;10.560;2023-05-17T03:11:56;6.20;99.90
9193;DHT22;4631;49.296;10.560;2023-05-17T03:14:23;6.10;99.90
9193;DHT22;4631;49.296;10.560;2023-05-17T03:16:49;6.10;99.90
9193;DHT22;4631;49.296;10.560;2023-05-17T03:19:18;6.10;99.90
9193;DHT22;4631;49.296;10.560;2023-05-17T03:21:45;6.00;99.90
9193;DHT22;4631;49.296;10.560;2023-05-17T03:24:11;6.00;99.90
9193;DHT22;4631;49.296;10.560;2023-05-17T03:26:38;6.00;99.90
9193;DHT22;4631;49.296;10.560;2023-05-17T03:29:06;5.90;99.90
9193;DHT22;4631;49.296;10.560;2023-05-17T03:31:33;5.90;99.90
9193;DHT22;4631;49.296;10.560;2023-05-17T03:33:59;5.90;99.90
9193;DHT22;4631;49.296;10.560;2023-05-17T03:36:26;5.90;99.90
9193;DHT22;4631;49.296;10.560;2023-05-17T03:38:53;5.90;99.90
9193;DHT22;4631;49.296;10.560;2023-05-17T03:41:19;5.90;99.90
9193;DHT22;4631;49.296;10.560;2023-05-17T03:43:46;5.90;99.90
9193;DHT22;4631;49.296;10.560;2023-05-17T03:46:14;5.90;99.90
9193;DHT22;4631;49.296;10.560;2023-05-17T03:48:40;5.90;99.90
9193;DHT22;4631;49.296;10.560;2023-05-17T03:51:07;5.90;99.90
9193;DHT22;4631;49.296;10.560;2023-05-17T03:53:34;5.90;99.90
9193;DHT22;4631;49.296;10.560;2023-05-17T03:56:05;5.90;99.90
9193;DHT22;4631;49.296;10.560;2023-05-17T03:58:32;5.90;99.90
9193;DHT22;4631;49.296;10.560;2023-05-17T04:00:58;5.80;99.90
9193;DHT22;4631;49.296;10.560;2023-05-17T04:03:26;5.80;99.90
9193;DHT22;4631;49.296;10.560;2023-05-17T04:05:53;5.90;99.90
9193;DHT22;4631;49.296;10.560;2023-05-17T04:08:20;5.90;99.90
9193;DHT22;4631;49.296;10.560;2023-05-17T04:10:46;5.90;99.90
9193;DHT22;4631;49.296;10.560;2023-05-17T04:13:13;6.00;99.90
9193;DHT22;4631;49.296;10.560;2023-05-17T04:15:40;6.00;99.90
9193;DHT22;4631;49.296;10.560;2023-05-17T04:18:06;6.10;99.90
9193;DHT22;4631;49.296;10.560;2023-05-17T04:20:34;6.10;99.90
9193;DHT22;4631;49.296;10.560;2023-05-17T04:23:01;6.10;99.90
9193;DHT22;4631;49.296;10.560;2023-05-17T04:25:27;6.10;99.90
9193;DHT22;4631;49.296;10.560;2023-05-17T04:27:54;6.20;99.90
9193;DHT22;4631;49.296;10.560;2023-05-17T04:30:21;6.20;99.90
9193;DHT22;4631;49.296;10.560;2023-05-17T04:32:48;6.20;99.90
9193;DHT22;4631;49.296;10.560;2023-05-17T04:35:15;6.20;99.90
9193;DHT22;4631;49.296;10.560;2023-05-17T04:37:43;6.20;99.90
9193;DHT22;4631;49.296;10.560;2023-05-17T04:40:10;6.30;99.90
9193;DHT22;4631;49.296;10.560;2023-05-17T04:42:37;6.30;99.90
9193;DHT22;4631;49.296;10.560;2023-05-17T04:45:04;6.30;99.90
9193;DHT22;4631;49.296;10.560;2023-05-17T04:47:30;6.30;99.90
9193;DHT22;4631;49.296;10.560;2023-05-17T04:49:57;6.20;99.90
9193;DHT22;4631;49.296;10.560;2023-05-17T04:52:24;6.30;99.90
9193;DHT22;4631;49.296;10.560;2023-05-17T04:54:52;6.30;99.90
9193;DHT22;4631;49.296;10.560;2023-05-17T04:57:18;6.40;99.90
9193;DHT22;4631;49.296;10.560;2023-05-17T04:59:45;6.50;99.90
9193;DHT22;4631;49.296;10.560;2023-05-17T05:02:12;6.50;99.90
9193;DHT22;4631;49.296;10.560;2023-05-17T05:04:39;6.50;99.90
9193;DHT22;4631;49.296;10.560;2023-05-17T05:07:06;6.60;99.90
9193;DHT22;4631;49.296;10.560;2023-05-17T05:09:32;6.70;99.90
9193;DHT22;4631;49.296;10.560;2023-05-17T05:12:00;6.70;99.90
9193;DHT22;4631;49.296;10.560;2023-05-17T05:14:27;6.70;99.90
9193;DHT22;4631;49.296;10.560;2023-05-17T05:16:54;6.80;99.90
9193;DHT22;4631;49.296;10.560;2023-05-17T05:19:21;6.90;99.90
9193;DHT22;4631;49.296;10.560;2023-05-17T05:21:47;6.90;99.90
9193;DHT22;4631;49.296;10.560;2023-05-17T05:24:14;6.80;99.90
9193;DHT22;4631;49.296;10.560;2023-05-17T05:26:41;6.90;99.90
9193;DHT22;4631;49.296;10.560;2023-05-17T05:29:10;6.90;99.90
9193;DHT22;4631;49.296;10.560;2023-05-17T05:31:37;6.90;99.90
9193;DHT22;4631;49.296;10.560;2023-05-17T05:34:03;7.00;99.90
9193;DHT22;4631;49.296;10.560;2023-05-17T05:36:30;7.00;99.90
9193;DHT22;4631;49.296;10.560;2023-05-17T05:38:57;7.00;99.90
9193;DHT22;4631;49.296;10.560;2023-05-17T05:41:23;7.10;99.90
9193;DHT22;4631;49.296;10.560;2023-05-17T05:43:50;7.00;99.90
9193;DHT22;4631;49.296;10.560;2023-05-17T05:46:18;7.10;99.90
9193;DHT22;4631;49.296;10.560;2023-05-17T05:48:45;7.10;99.90
9193;DHT22;4631;49.296;10.560;2023-05-17T05:51:11;7.20;99.90
9193;DHT22;4631;49.296;10.560;2023-05-17T05:53:38;7.20;99.90
9193;DHT22;4631;49.296;10.560;2023-05-17T05:56:05;7.20;99.90
9193;DHT22;4631;49.296;10.560;2023-05-17T05:58:31;7.30;99.90
9193;DHT22;4631;49.296;10.560;2023-05-17T06:00:58;7.20;99.90
9193;DHT22;4631;49.296;10.560;2023-05-17T06:03:26;7.20;99.90
9193;DHT22;4631;49.296;10.560;2023-05-17T06:05:53;7.30;99.90
9193;DHT22;4631;49.296;10.560;2023-05-17T06:08:20;7.40;99.90
9193;DHT22;4631;49.296;10.560;2023-05-17T06:10:46;7.40;99.90
9193;DHT22;4631;49.296;10.560;2023-05-17T06:13:13;7.40;99.90
9193;DHT22;4631;49.296;10.560;2023-05-17T06:15:40;7.40;99.90
9193;DHT22;4631;49.296;10.560;2023-05-17T06:18:06;7.50;99.90
9193;DHT22;4631;49.296;10.560;2023-05-17T06:20:34;7.60;99.90
9193;DHT22;4631;49.296;10.560;2023-05-17T06:23:01;7.60;99.90
9193;DHT22;4631;49.296;10.560;2023-05-17T06:25:29;7.70;99.90
9193;DHT22;4631;49.296;10.560;2023-05-17T06:27:55;7.70;99.90
9193;DHT22;4631;49.296;10.560;2023-05-17T06:30:22;7.80;99.90
9193;DHT22;4631;49.296;10.560;2023-05-17T06:32:49;7.80;99.90
9193;DHT22;4631;49.296;10.560;2023-05-17T06:35:15;7.90;99.90
9193;DHT22;4631;49.296;10.560;2023-05-17T06:37:43;8.00;99.90
9193;DHT22;4631;49.296;10.560;2023-05-17T06:40:10;8.00;99.90
9193;DHT22;4631;49.296;10.560;2023-05-17T06:42:37;8.10;99.90
9193;DHT22;4631;49.296;10.560;2023-05-17T06:45:05;8.20;99.90
9193;DHT22;4631;49.296;10.560;2023-05-17T06:47:32;8.20;99.90
9193;DHT22;4631;49.296;10.560;2023-05-17T06:49:59;8.30;99.90
9193;DHT22;4631;49.296;10.560;2023-05-17T06:52:25;8.30;99.90
9193;DHT22;4631;49.296;10.560;2023-05-17T06:54:53;8.40;99.90
9193;DHT22;4631;49.296;10.560;2023-05-17T06:57:20;8.40;99.90
9193;DHT22;4631;49.296;10.560;2023-05-17T06:59:47;8.50;99.90
9193;DHT22;4631;49.296;10.560;2023-05-17T07:02:13;8.60;99.90
9193;DHT22;4631;49.296;10.560;2023-05-17T07:04:40;8.70;99.90
9193;DHT22;4631;49.296;10.560;2023-05-17T07:07:06;8.80;99.90
9193;DHT22;4631;49.296;10.560;2023-05-17T07:09:33;8.90;99.90
9193;DHT22;4631;49.296;10.560;2023-05-17T07:12:01;9.00;99.90
9193;DHT22;4631;49.296;10.560;2023-05-17T07:14:27;9.00;99.90
9193;DHT22;4631;49.296;10.560;2023-05-17T07:16:54;9.10;99.90
9193;DHT22;4631;49.296;10.560;2023-05-17T07:19:21;9.10;99.90
9193;DHT22;4631;49.296;10.560;2023-05-17T07:21:47;9.10;99.90
9193;DHT22;4631;49.296;10.560;2023-05-17T07:24:14;9.10;99.90
9193;DHT22;4631;49.296;10.560;2023-05-17T07:26:41;9.10;99.90
9193;DHT22;4631;49.296;10.560;2023-05-17T07:29:09;9.20;99.90
9193;DHT22;4631;49.296;10.560;2023-05-17T07:31:36;9.20;99.90
9193;DHT22;4631;49.296;10.560;2023-05-17T07:34:03;9.30;99.90
9193;DHT22;4631;49.296;10.560;2023-05-17T07:36:29;9.40;99.90
9193;DHT22;4631;49.296;10.560;2023-05-17T07:38:56;9.50;99.90
9193;DHT22;4631;49.296;10.560;2023-05-17T07:41:23;9.60;99.90
9193;DHT22;4631;49.296;10.560;2023-05-17T07:43:51;9.70;99.90
9193;DHT22;4631;49.296;10.560;2023-05-17T07:46:19;9.80;99.90
9193;DHT22;4631;49.296;10.560;2023-05-17T07:48:45;9.90;99.90
9193;DHT22;4631;49.296;10.560;2023-05-17T07:51:12;9.90;99.90
9193;DHT22;4631;49.296;10.560;2023-05-17T07:53:39;9.90;99.90
9193;DHT22;4631;49.296;10.560;2023-05-17T07:56:05;10.00;99.90
9193;DHT22;4631;49.296;10.560;2023-05-17T07:58:32;10.00;99.90
9193;DHT22;4631;49.296;10.560;2023-05-17T08:01:00;10.00;99.90
9193;DHT22;4631;49.296;10.560;2023-05-17T08:03:28;10.00;99.90
9193;DHT22;4631;49.296;10.560;2023-05-17T08:05:55;9.90;99.90
9193;DHT22;4631;49.296;10.560;2023-05-17T08:08:21;10.00;99.90
9193;DHT22;4631;49.296;10.560;2023-05-17T08:10:48;10.00;99.90
9193;DHT22;4631;49.296;10.560;2023-05-17T08:13:15;9.90;99.90
9193;DHT22;4631;49.296;10.560;2023-05-17T08:15:41;10.00;99.90
9193;DHT22;4631;49.296;10.560;2023-05-17T08:18:08;10.10;99.90
9193;DHT22;4631;49.296;10.560;2023-05-17T08:20:36;10.20;99.90
9193;DHT22;4631;49.296;10.560;2023-05-17T08:23:03;10.30;99.90
9193;DHT22;4631;49.296;10.560;2023-05-17T08:25:29;10.30;99.90
9193;DHT22;4631;49.296;10.560;2023-05-17T08:27:56;10.30;99.90
9193;DHT22;4631;49.296;10.560;2023-05-17T08:30:23;10.40;99.90
9193;DHT22;4631;49.296;10.560;2023-05-17T08:32:49;10.50;99.90
9193;DHT22;4631;49.296;10.560;2023-05-17T08:35:16;10.50;99.90
9193;DHT22;4631;49.296;10.560;2023-05-17T08:37:44;10.50;99.90
9193;DHT22;4631;49.296;10.560;2023-05-17T08:40:11;10.60;99.90
9193;DHT22;4631;49.296;10.560;2023-05-17T08:42:39;10.60;99.90
9193;DHT22;4631;49.296;10.560;2023-05-17T08:45:06;10.70;99.90
9193;DHT22;4631;49.296;10.560;2023-05-17T08:47:35;10.80;99.90
9193;DHT22;4631;49.296;10.560;2023-05-17T08:50:02;10.80;99.90
9193;DHT22;4631;49.296;10.560;2023-05-17T08:52:30;10.90;99.90
9193;DHT22;4631;49.296;10.560;2023-05-17T08:54:59;10.90;99.90
9193;DHT22;4631;49.296;10.560;2023-05-17T08:57:26;10.80;99.90
9193;DHT22;4631;49.296;10.560;2023-05-17T08:59:54;10.90;99.90
9193;DHT22;4631;49.296;10.560;2023-05-17T09:02:21;10.90;99.90
9193;DHT22;4631;49.296;10.560;2023-05-17T09:04:48;11.00;99.90
9193;DHT22;4631;49.296;10.560;2023-05-17T09:07:20;11.20;99.90
9193;DHT22;4631;49.296;10.560;2023-05-17T09:09:46;11.30;99.90
9193;DHT22;4631;49.296;10.560;2023-05-17T09:12:14;11.40;99.90
9193;DHT22;4631;49.296;10.560;2023-05-17T09:14:41;11.50;99.90
9193;DHT22;4631;49.296;10.560;2023-05-17T09:17:08;11.60;99.90
9193;DHT22;4631;49.296;10.560;2023-05-17T09:19:41;11.60;99.90
9193;DHT22;4631;49.296;10.560;2023-05-17T09:22:08;11.60;99.90
9193;DHT22;4631;49.296;10.560;2023-05-17T09:24:37;11.60;99.90
9193;DHT22;4631;49.296;10.560;2023-05-17T09:27:05;11.60;99.90
9193;DHT22;4631;49.296;10.560;2023-05-17T09:29:33;11.50;99.90
9193;DHT22;4631;49.296;10.560;2023-05-17T09:32:13;11.40;99.90
9193;DHT22;4631;49.296;10.560;2023-05-17T09:34:40;11.50;99.90
9193;DHT22;4631;49.296;10.560;2023-05-17T09:37:11;11.60;99.90
9193;DHT22;4631;49.296;10.560;2023-05-17T09:39:37;11.70;99.90
9193;DHT22;4631;49.296;10.560;2023-05-17T09:42:05;11.80;99.90
9193;DHT22;4631;49.296;10.560;2023-05-17T09:44:40;11.90;99.90
9193;DHT22;4631;49.296;10.560;2023-05-17T09:47:10;11.70;99.90
9193;DHT22;4631;49.296;10.560;2023-05-17T09:49:37;11.70;99.90
9193;DHT22;4631;49.296;10.560;2023-05-17T09:52:05;11.60;99.90
9193;DHT22;4631;49.296;10.560;2023-05-17T09:54:36;11.50;99.90
9193;DHT22;4631;49.296;10.560;2023-05-17T09:57:05;11.50;99.90
9193;DHT22;4631;49.296;10.560;2023-05-17T09:59:34;11.50;99.90
9193;DHT22;4631;49.296;10.560;2023-05-17T10:02:03;11.50;99.90
9193;DHT22;4631;49.296;10.560;2023-05-17T10:04:31;11.70;99.90
9193;DHT22;4631;49.296;10.560;2023-05-17T10:07:01;11.60;99.90
9193;DHT22;4631;49.296;10.560;2023-05-17T10:09:29;11.50;99.90
9193;DHT22;4631;49.296;10.560;2023-05-17T10:11:59;11.50;99.90
9193;DHT22;4631;49.296;10.560;2023-05-17T10:14:27;11.50;99.90
9193;DHT22;4631;49.296;10.560;2023-05-17T10:16:57;11.50;99.90
9193;DHT22;4631;49.296;10.560;2023-05-17T10:19:25;11.50;99.90
9193;DHT22;4631;49.296;10.560;2023-05-17T10:21:52;11.50;99.90
9193;DHT22;4631;49.296;10.560;2023-05-17T10:24:19;11.40;99.90
9193;DHT22;4631;49.296;10.560;2023-05-17T10:26:46;11.40;99.90
9193;DHT22;4631;49.296;10.560;2023-05-17T10:29:13;11.30;99.90
9193;DHT22;4631;49.296;10.560;2023-05-17T10:31:40;11.20;99.90
9193;DHT22;4631;49.296;10.560;2023-05-17T10:34:08;11.10;99.90
9193;DHT22;4631;49.296;10.560;2023-05-17T10:36:37;11.20;99.90
9193;DHT22;4631;49.296;10.560;2023-05-17T10:39:05;11.20;99.90
9193;DHT22;4631;49.296;10.560;2023-05-17T10:41:32;11.30;99.90
9193;DHT22;4631;49.296;10.560;2023-05-17T10:43:59;11.30;99.90
9193;DHT22;4631;49.296;10.560;2023-05-17T10:46:28;11.30;99.90
9193;DHT22;4631;49.296;10.560;2023-05-17T10:48:56;11.40;99.90
9193;DHT22;4631;49.296;10.560;2023-05-17T10:51:23;11.40;99.90
9193;DHT22;4631;49.296;10.560;2023-05-17T10:54:04;11.40;99.90
9193;DHT22;4631;49.296;10.560;2023-05-17T10:56:31;11.40;99.90
9193;DHT22;4631;49.296;10.560;2023-05-17T11:01:49;11.50;99.90
9193;DHT22;4631;49.296;10.560;2023-05-17T11:04:20;11.60;99.90
9193;DHT22;4631;49.296;10.560;2023-05-17T11:06:47;11.50;99.90
9193;DHT22;4631;49.296;10.560;2023-05-17T11:09:16;11.50;99.90
9193;DHT22;4631;49.296;10.560;2023-05-17T11:14:41;11.40;99.90
9193;DHT22;4631;49.296;10.560;2023-05-17T11:17:11;11.20;99.90
9193;DHT22;4631;49.296;10.560;2023-05-17T11:19:37;11.20;99.90
9193;DHT22;4631;49.296;10.560;2023-05-17T11:22:09;11.20;99.90
9193;DHT22;4631;49.296;10.560;2023-05-17T11:24:37;11.20;99.90
9193;DHT22;4631;49.296;10.560;2023-05-17T11:27:06;11.20;99.90
9193;DHT22;4631;49.296;10.560;2023-05-17T11:29:33;11.30;99.90
9193;DHT22;4631;49.296;10.560;2023-05-17T11:31:59;11.30;99.90
9193;DHT22;4631;49.296;10.560;2023-05-17T11:34:31;11.30;99.90
9193;DHT22;4631;49.296;10.560;2023-05-17T11:36:58;11.20;99.90
9193;DHT22;4631;49.296;10.560;2023-05-17T11:39:25;11.20;99.90
9193;DHT22;4631;49.296;10.560;2023-05-17T11:41:53;11.20;99.90
9193;DHT22;4631;49.296;10.560;2023-05-17T11:44:21;11.20;99.90
9193;DHT22;4631;49.296;10.560;2023-05-17T11:46:49;11.30;99.90
9193;DHT22;4631;49.296;10.560;2023-05-17T11:49:16;11.30;99.90
9193;DHT22;4631;49.296;10.560;2023-05-17T11:51:44;11.30;99.90
9193;DHT22;4631;49.296;10.560;2023-05-17T11:54:12;11.20;99.90
9193;DHT22;4631;49.296;10.560;2023-05-17T11:56:39;11.10;99.90
9193;DHT22;4631;49.296;10.560;2023-05-17T11:59:08;11.10;99.90
9193;DHT22;4631;49.296;10.560;2023-05-17T12:01:41;11.00;99.90
9193;DHT22;4631;49.296;10.560;2023-05-17T12:04:08;11.00;99.90
9193;DHT22;4631;49.296;10.560;2023-05-17T12:06:35;11.00;99.90
9193;DHT22;4631;49.296;10.560;2023-05-17T12:09:01;11.10;99.90
9193;DHT22;4631;49.296;10.560;2023-05-17T12:11:30;11.20;99.90
9193;DHT22;4631;49.296;10.560;2023-05-17T12:13:56;11.20;99.90
9193;DHT22;4631;49.296;10.560;2023-05-17T12:16:24;11.30;99.90
9193;DHT22;4631;49.296;10.560;2023-05-17T12:18:51;11.40;99.90
9193;DHT22;4631;49.296;10.560;2023-05-17T12:21:18;11.40;99.90
9193;DHT22;4631;49.296;10.560;2023-05-17T12:23:46;11.10;99.90
9193;DHT22;4631;49.296;10.560;2023-05-17T12:26:16;11.20;99.90
9193;DHT22;4631;49.296;10.560;2023-05-17T12:28:43;11.10;99.90
9193;DHT22;4631;49.296;10.560;2023-05-17T12:31:11;11.10;99.90
9193;DHT22;4631;49.296;10.560;2023-05-17T12:33:40;11.20;99.90
9193;DHT22;4631;49.296;10.560;2023-05-17T12:36:10;11.30;99.90
9193;DHT22;4631;49.296;10.560;2023-05-17T12:38:36;11.40;99.90
9193;DHT22;4631;49.296;10.560;2023-05-17T12:41:05;11.50;99.90
9193;DHT22;4631;49.296;10.560;2023-05-17T12:43:32;11.50;99.90
9193;DHT22;4631;49.296;10.560;2023-05-17T12:46:03;11.50;99.90
9193;DHT22;4631;49.296;10.560;2023-05-17T12:48:31;11.50;99.90
9193;DHT22;4631;49.296;10.560;2023-05-17T12:51:05;11.70;99.90
9193;DHT22;4631;49.296;10.560;2023-05-17T12:53:35;11.70;99.90
9193;DHT22;4631;49.296;10.560;2023-05-17T12:56:02;11.80;99.90
9193;DHT22;4631;49.296;10.560;2023-05-17T12:58:29;11.50;99.90
9193;DHT22;4631;49.296;10.560;2023-05-17T13:00:57;11.60;99.90
9193;DHT22;4631;49.296;10.560;2023-05-17T13:03:24;11.50;99.90
9193;DHT22;4631;49.296;10.560;2023-05-17T13:05:58;11.60;99.90
9193;DHT22;4631;49.296;10.560;2023-05-17T13:08:26;11.70;99.90
9193;DHT22;4631;49.296;10.560;2023-05-17T13:11:03;11.90;99.90
9193;DHT22;4631;49.296;10.560;2023-05-17T13:13:31;12.00;99.90
9193;DHT22;4631;49.296;10.560;2023-05-17T13:15:58;12.10;99.90
9193;DHT22;4631;49.296;10.560;2023-05-17T13:18:24;12.00;99.90
9193;DHT22;4631;49.296;10.560;2023-05-17T13:20:51;12.10;99.90
9193;DHT22;4631;49.296;10.560;2023-05-17T13:23:18;12.10;99.90
9193;DHT22;4631;49.296;10.560;2023-05-17T13:25:46;12.10;99.90
9193;DHT22;4631;49.296;10.560;2023-05-17T13:28:12;12.10;99.90
9193;DHT22;4631;49.296;10.560;2023-05-17T13:30:39;12.00;99.90
9193;DHT22;4631;49.296;10.560;2023-05-17T13:33:10;11.90;99.90
9193;DHT22;4631;49.296;10.560;2023-05-17T13:35:36;11.90;99.90
9193;DHT22;4631;49.296;10.560;2023-05-17T13:38:03;11.90;99.90
9193;DHT22;4631;49.296;10.560;2023-05-17T13:40:30;11.80;99.90
9193;DHT22;4631;49.296;10.560;2023-05-17T13:42:58;11.90;99.90
9193;DHT22;4631;49.296;10.560;2023-05-17T13:45:24;11.90;99.90
9193;DHT22;4631;49.296;10.560;2023-05-17T13:47:51;11.90;99.90
9193;DHT22;4631;49.296;10.560;2023-05-17T13:50:17;12.00;99.90
9193;DHT22;4631;49.296;10.560;2023-05-17T13:52:45;12.00;99.90
9193;DHT22;4631;49.296;10.560;2023-05-17T13:55:11;12.00;99.90
9193;DHT22;4631;49.296;10.560;2023-05-17T13:57:38;11.90;99.90
9193;DHT22;4631;49.296;10.560;2023-05-17T14:00:08;11.90;99.90
9193;DHT22;4631;49.296;10.560;2023-05-17T14:02:35;12.00;99.90
9193;DHT22;4631;49.296;10.560;2023-05-17T14:05:02;11.90;99.90
9193;DHT22;4631;49.296;10.560;2023-05-17T14:07:29;11.90;99.90
9193;DHT22;4631;49.296;10.560;2023-05-17T14:09:56;12.00;99.90
9193;DHT22;4631;49.296;10.560;2023-05-17T14:12:22;12.00;99.90
9193;DHT22;4631;49.296;10.560;2023-05-17T14:14:49;12.00;99.90
9193;DHT22;4631;49.296;10.560;2023-05-17T14:17:17;12.00;99.90
9193;DHT22;4631;49.296;10.560;2023-05-17T14:19:44;12.20;99.90
9193;DHT22;4631;49.296;10.560;2023-05-17T14:22:10;12.20;99.90
9193;DHT22;4631;49.296;10.560;2023-05-17T14:24:38;12.30;99.90
9193;DHT22;4631;49.296;10.560;2023-05-17T14:27:04;12.30;99.90
9193;DHT22;4631;49.296;10.560;2023-05-17T14:29:31;12.40;99.90
9193;DHT22;4631;49.296;10.560;2023-05-17T14:31:58;12.50;99.90
9193;DHT22;4631;49.296;10.560;2023-05-17T14:34:26;12.50;99.90
9193;DHT22;4631;49.296;10.560;2023-05-17T14:36:52;12.60;99.90
9193;DHT22;4631;49.296;10.560;2023-05-17T14:39:19;12.70;99.90
9193;DHT22;4631;49.296;10.560;2023-05-17T14:41:46;12.70;99.90
9193;DHT22;4631;49.296;10.560;2023-05-17T14:44:12;12.70;99.90
9193;DHT22;4631;49.296;10.560;2023-05-17T14:46:39;12.80;99.90
9193;DHT22;4631;49.296;10.560;2023-05-17T14:49:06;13.00;99.90
9193;DHT22;4631;49.296;10.560;2023-05-17T14:51:34;13.00;99.90
9193;DHT22;4631;49.296;10.560;2023-05-17T14:54:01;13.00;99.90
9193;DHT22;4631;49.296;10.560;2023-05-17T14:56:28;13.00;99.90
9193;DHT22;4631;49.296;10.560;2023-05-17T14:58:54;12.90;99.90
9193;DHT22;4631;49.296;10.560;2023-05-17T15:01:21;12.90;99.90
9193;DHT22;4631;49.296;10.560;2023-05-17T15:03:48;12.90;99.90
9193;DHT22;4631;49.296;10.560;2023-05-17T15:06:15;13.00;99.90
9193;DHT22;4631;49.296;10.560;2023-05-17T15:08:43;13.00;99.90
9193;DHT22;4631;49.296;10.560;2023-05-17T15:11:09;12.80;99.90
9193;DHT22;4631;49.296;10.560;2023-05-17T15:13:36;12.80;99.90
9193;DHT22;4631;49.296;10.560;2023-05-17T15:16:03;12.70;99.90
9193;DHT22;4631;49.296;10.560;2023-05-17T15:18:30;12.80;99.90
9193;DHT22;4631;49.296;10.560;2023-05-17T15:20:57;12.90;99.90
9193;DHT22;4631;49.296;10.560;2023-05-17T15:23:23;12.90;99.90
9193;DHT22;4631;49.296;10.560;2023-05-17T15:25:52;12.90;99.90
9193;DHT22;4631;49.296;10.560;2023-05-17T15:28:18;12.90;99.90
9193;DHT22;4631;49.296;10.560;2023-05-17T15:30:45;12.80;99.90
9193;DHT22;4631;49.296;10.560;2023-05-17T15:33:12;12.90;99.90
9193;DHT22;4631;49.296;10.560;2023-05-17T15:35:38;13.10;99.90
9193;DHT22;4631;49.296;10.560;2023-05-17T15:38:05;13.20;99.90
9193;DHT22;4631;49.296;10.560;2023-05-17T15:40:32;13.20;99.90
9193;DHT22;4631;49.296;10.560;2023-05-17T15:43:00;13.20;99.90
9193;DHT22;4631;49.296;10.560;2023-05-17T15:45:27;13.20;99.90
9193;DHT22;4631;49.296;10.560;2023-05-17T15:47:54;13.30;99.90
9193;DHT22;4631;49.296;10.560;2023-05-17T15:50:21;13.30;99.90
9193;DHT22;4631;49.296;10.560;2023-05-17T15:52:48;13.30;99.90
9193;DHT22;4631;49.296;10.560;2023-05-17T15:55:14;13.20;99.90
9193;DHT22;4631;49.296;10.560;2023-05-17T15:57:41;13.20;99.90
9193;DHT22;4631;49.296;10.560;2023-05-17T16:00:10;13.20;99.90
9193;DHT22;4631;49.296;10.560;2023-05-17T16:02:37;13.30;99.90